Time;durP1;ratioP1;P1;durP2;ratioP2;P2;SDS_P1;SDS_P2;PMS_P1;PMS_P2;Temp;Humidity;BMP_temperature;BMP_pressure;BME280_temperature;BME280_humidity;BME280_pressure;Samples;Min_cycle;Max_cycle;Signal;HPM_P1;HPM_P2
2021/05/20 00:01:37;;;;;;;3.83;3.43;;;;;;;;;;5014925;28;20232;-61
2021/05/20 00:04:03;;;;;;;5.03;3.90;;;;;;;;;;5013495;28;20237;-61
2021/05/20 00:06:28;;;;;;;4.10;3.70;;;;;;;;;;5014733;28;20269;-61
2021/05/20 00:08:53;;;;;;;3.53;3.23;;;;;;;;;;5013960;28;20295;-62
2021/05/20 00:11:18;;;;;;;3.70;3.37;;;;;;;;;;5013535;28;20337;-61
2021/05/20 00:13:44;;;;;;;4.10;3.70;;;;;;;;;;5014585;28;20656;-61
2021/05/20 00:16:09;;;;;;;5.93;4.17;;;;;;;;;;5014227;28;20239;-61
2021/05/20 00:18:34;;;;;;;3.93;3.50;;;;;;;;;;5014711;28;20223;-62
2021/05/20 00:21:00;;;;;;;4.00;3.60;;;;;;;;;;5013366;28;20280;-61
2021/05/20 00:23:25;;;;;;;4.60;4.23;;;;;;;;;;5014540;28;20317;-60
2021/05/20 00:25:50;;;;;;;4.50;3.63;;;;;;;;;;5013957;28;20234;-61
2021/05/20 00:28:15;;;;;;;4.57;4.13;;;;;;;;;;5014029;28;20743;-60
2021/05/20 00:30:41;;;;;;;3.83;3.50;;;;;;;;;;5014490;28;20222;-62
2021/05/20 00:33:06;;;;;;;4.20;3.80;;;;;;;;;;5013713;28;20301;-61
2021/05/20 00:35:31;;;;;;;3.93;3.63;;;;;;;;;;5014040;28;20243;-61
2021/05/20 00:37:56;;;;;;;5.30;4.20;;;;;;;;;;5014457;28;20309;-61
2021/05/20 00:40:22;;;;;;;4.40;3.50;;;;;;;;;;5014018;28;20769;-61
2021/05/20 00:42:47;;;;;;;4.33;3.00;;;;;;;;;;5014382;28;20249;-60
2021/05/20 00:45:13;;;;;;;4.63;3.30;;;;;;;;;;5013960;28;20218;-61
2021/05/20 00:47:39;;;;;;;5.13;3.03;;;;;;;;;;5014018;28;20238;-61
2021/05/20 00:50:07;;;;;;;3.60;3.30;;;;;;;;;;5012705;28;20805;-60
2021/05/20 00:52:33;;;;;;;3.77;3.30;;;;;;;;;;5013300;28;20218;-62
2021/05/20 00:54:59;;;;;;;3.37;3.07;;;;;;;;;;5013102;28;20463;-61
2021/05/20 00:57:25;;;;;;;3.47;3.17;;;;;;;;;;5013074;28;20222;-60
2021/05/20 00:59:52;;;;;;;2.70;2.50;;;;;;;;;;5013131;28;20853;-61
2021/05/20 01:02:18;;;;;;;4.17;3.80;;;;;;;;;;4996425;28;20457;-61
2021/05/20 01:04:44;;;;;;;4.00;3.57;;;;;;;;;;5014175;28;20471;-61
2021/05/20 01:07:09;;;;;;;3.57;3.27;;;;;;;;;;5013672;28;20857;-60
2021/05/20 01:09:35;;;;;;;4.10;3.70;;;;;;;;;;5013861;28;20287;-61
2021/05/20 01:12:02;;;;;;;3.40;3.10;;;;;;;;;;5014217;28;20218;-61
2021/05/20 01:14:27;;;;;;;3.80;3.50;;;;;;;;;;5013740;28;20460;-61
2021/05/20 01:16:52;;;;;;;3.80;3.40;;;;;;;;;;5014025;28;20474;-61
2021/05/20 01:19:18;;;;;;;3.80;3.50;;;;;;;;;;5013594;28;20305;-61
2021/05/20 01:21:43;;;;;;;4.03;3.73;;;;;;;;;;5014038;28;20345;-60
2021/05/20 01:24:12;;;;;;;3.40;3.10;;;;;;;;;;5013462;28;20279;-61
2021/05/20 01:26:39;;;;;;;3.00;2.70;;;;;;;;;;5013991;28;20680;-61
2021/05/20 01:29:05;;;;;;;4.43;2.80;;;;;;;;;;5013647;28;20471;-60
2021/05/20 01:31:31;;;;;;;3.80;3.50;;;;;;;;;;5013936;28;20584;-61
2021/05/20 01:33:56;;;;;;;3.80;3.50;;;;;;;;;;5013974;28;20484;-61
2021/05/20 01:36:28;;;;;;;3.87;3.40;;;;;;;;;;5013560;28;20613;-61
2021/05/20 01:38:57;;;;;;;3.53;3.23;;;;;;;;;;5017351;28;20221;-61
2021/05/20 01:41:23;;;;;;;3.30;2.87;;;;;;;;;;5017292;28;20507;-60
2021/05/20 01:43:48;;;;;;;3.40;3.10;;;;;;;;;;5017502;28;20487;-61
2021/05/20 01:46:13;;;;;;;2.80;2.60;;;;;;;;;;5017199;28;20215;-60
2021/05/20 01:48:40;;;;;;;3.20;2.90;;;;;;;;;;5017267;28;20328;-61
2021/05/20 01:51:09;;;;;;;3.50;2.97;;;;;;;;;;5017054;28;20224;-60
2021/05/20 01:53:35;;;;;;;3.33;2.80;;;;;;;;;;5016263;28;20428;-60
2021/05/20 01:56:01;;;;;;;2.93;2.70;;;;;;;;;;5017136;28;20432;-60
2021/05/20 01:58:26;;;;;;;2.83;2.63;;;;;;;;;;5016844;28;20445;-61
2021/05/20 02:00:52;;;;;;;3.90;2.80;;;;;;;;;;5017249;28;20466;-61
2021/05/20 02:03:17;;;;;;;5.33;3.30;;;;;;;;;;5016565;28;20218;-61
2021/05/20 02:05:43;;;;;;;2.97;2.77;;;;;;;;;;5016854;28;20214;-60
2021/05/20 02:08:08;;;;;;;3.20;2.90;;;;;;;;;;5015455;28;20223;-62
2021/05/20 02:10:34;;;;;;;3.10;2.67;;;;;;;;;;5016911;28;20233;-61
2021/05/20 02:12:59;;;;;;;3.20;2.90;;;;;;;;;;5016923;28;20252;-60
2021/05/20 02:15:25;;;;;;;4.03;3.00;;;;;;;;;;5015556;28;20280;-60
2021/05/20 02:17:50;;;;;;;3.83;3.33;;;;;;;;;;5016642;28;20226;-60
2021/05/20 02:20:16;;;;;;;4.40;2.80;;;;;;;;;;5016358;28;20373;-60
2021/05/20 02:22:42;;;;;;;2.60;2.37;;;;;;;;;;5016670;28;20214;-61
2021/05/20 02:25:08;;;;;;;3.90;2.80;;;;;;;;;;5016121;28;20553;-61
2021/05/20 02:27:33;;;;;;;3.37;3.00;;;;;;;;;;5016619;28;20470;-59
2021/05/20 02:29:58;;;;;;;4.23;3.00;;;;;;;;;;5016634;28;20535;-60
2021/05/20 02:32:24;;;;;;;3.60;3.30;;;;;;;;;;5015607;28;20302;-60
2021/05/20 02:34:49;;;;;;;2.90;2.63;;;;;;;;;;5016876;28;20233;-60
2021/05/20 02:37:14;;;;;;;3.60;3.10;;;;;;;;;;5015959;28;20313;-59
2021/05/20 02:39:40;;;;;;;3.40;2.90;;;;;;;;;;5016316;28;20704;-61
2021/05/20 02:42:06;;;;;;;3.07;2.77;;;;;;;;;;5016595;28;20453;-61
2021/05/20 02:44:31;;;;;;;3.30;3.00;;;;;;;;;;5015892;28;20217;-62
2021/05/20 02:46:56;;;;;;;3.50;2.63;;;;;;;;;;5016123;28;20646;-61
2021/05/20 02:49:22;;;;;;;4.20;3.03;;;;;;;;;;5015593;28;20301;-60
2021/05/20 02:51:47;;;;;;;3.10;2.90;;;;;;;;;;5016208;28;20218;-61
2021/05/20 02:54:12;;;;;;;5.27;3.00;;;;;;;;;;5015758;28;20306;-59
2021/05/20 02:56:38;;;;;;;3.20;2.80;;;;;;;;;;5016135;28;20223;-60
2021/05/20 02:59:03;;;;;;;3.37;3.10;;;;;;;;;;5016346;28;20232;-61
2021/05/20 03:01:29;;;;;;;2.77;2.57;;;;;;;;;;5015722;28;20305;-61
2021/05/20 03:03:54;;;;;;;3.20;2.90;;;;;;;;;;5016195;28;20576;-61
2021/05/20 03:06:19;;;;;;;3.57;3.27;;;;;;;;;;5015355;28;20682;-61
2021/05/20 03:08:44;;;;;;;3.60;2.97;;;;;;;;;;5015833;28;20237;-61
2021/05/20 03:11:10;;;;;;;4.20;3.80;;;;;;;;;;5016029;28;20305;-62
2021/05/20 03:13:35;;;;;;;4.27;3.27;;;;;;;;;;5015359;28;20234;-61
2021/05/20 03:16:00;;;;;;;4.03;3.33;;;;;;;;;;5015048;28;20261;-61
2021/05/20 03:18:26;;;;;;;4.27;3.70;;;;;;;;;;5015321;28;20222;-61
2021/05/20 03:20:51;;;;;;;3.77;3.40;;;;;;;;;;5015640;28;20284;-61
2021/05/20 03:23:17;;;;;;;5.50;3.30;;;;;;;;;;5015201;28;20225;-61
2021/05/20 03:25:42;;;;;;;3.20;3.00;;;;;;;;;;5015438;28;20298;-60
2021/05/20 03:28:07;;;;;;;4.40;4.00;;;;;;;;;;5015358;28;20611;-61
2021/05/20 03:30:32;;;;;;;4.40;4.00;;;;;;;;;;5015364;28;20317;-61
2021/05/20 03:32:58;;;;;;;3.80;3.40;;;;;;;;;;5015595;28;20697;-60
2021/05/20 03:35:23;;;;;;;3.63;3.33;;;;;;;;;;5016224;28;20237;-61
2021/05/20 03:37:48;;;;;;;4.07;3.67;;;;;;;;;;5015012;28;20233;-60
2021/05/20 03:40:13;;;;;;;5.30;4.80;;;;;;;;;;5022298;28;20234;-59
2021/05/20 03:42:39;;;;;;;4.17;3.87;;;;;;;;;;5034883;28;20321;-61
2021/05/20 03:45:05;;;;;;;4.67;4.27;;;;;;;;;;5032714;28;20229;-60
2021/05/20 03:47:31;;;;;;;4.57;4.17;;;;;;;;;;5034408;28;20236;-60
2021/05/20 03:49:56;;;;;;;4.90;4.47;;;;;;;;;;5035274;28;20468;-61
2021/05/20 03:52:21;;;;;;;4.37;3.97;;;;;;;;;;5026987;28;20294;-60
2021/05/20 03:54:46;;;;;;;4.90;4.40;;;;;;;;;;5031676;28;20233;-61
2021/05/20 03:57:12;;;;;;;5.10;4.67;;;;;;;;;;5034877;28;20308;-59
2021/05/20 03:59:37;;;;;;;4.40;4.00;;;;;;;;;;5033706;28;20525;-59
2021/05/20 04:02:03;;;;;;;4.80;4.40;;;;;;;;;;5033947;28;20718;-60
2021/05/20 04:04:28;;;;;;;4.70;4.30;;;;;;;;;;5033559;28;20239;-60
2021/05/20 04:06:53;;;;;;;5.70;5.20;;;;;;;;;;5034559;28;20291;-60
2021/05/20 04:09:18;;;;;;;4.63;3.90;;;;;;;;;;5033888;28;20696;-60
2021/05/20 04:11:44;;;;;;;5.63;4.07;;;;;;;;;;5034666;28;20224;-60
2021/05/20 04:14:09;;;;;;;5.13;4.73;;;;;;;;;;5034470;28;20240;-60
2021/05/20 04:16:34;;;;;;;5.20;4.80;;;;;;;;;;5033885;28;20318;-61
2021/05/20 04:19:02;;;;;;;5.20;4.77;;;;;;;;;;5034366;28;20237;-61
2021/05/20 04:21:27;;;;;;;5.57;5.03;;;;;;;;;;5034201;28;20228;-61
2021/05/20 04:23:53;;;;;;;4.77;4.37;;;;;;;;;;5034296;28;20454;-61
2021/05/20 04:26:19;;;;;;;5.63;5.00;;;;;;;;;;5016440;28;20701;-60
2021/05/20 04:28:48;;;;;;;6.10;4.83;;;;;;;;;;5034322;28;20566;-61
2021/05/20 04:31:14;;;;;;;5.00;4.60;;;;;;;;;;5034008;28;20472;-61
2021/05/20 04:33:41;;;;;;;5.77;5.37;;;;;;;;;;5033554;28;20434;-60
2021/05/20 04:36:06;;;;;;;4.93;4.53;;;;;;;;;;5027554;28;20222;-60
2021/05/20 04:38:31;;;;;;;5.63;5.20;;;;;;;;;;5033533;28;20531;-60
2021/05/20 04:40:56;;;;;;;4.53;4.13;;;;;;;;;;5034130;28;20334;-60
2021/05/20 04:43:22;;;;;;;5.30;4.90;;;;;;;;;;5032136;28;20211;-60
2021/05/20 04:45:47;;;;;;;5.50;5.00;;;;;;;;;;5034077;28;20308;-60
2021/05/20 04:48:12;;;;;;;5.80;5.00;;;;;;;;;;5033911;28;20312;-60
2021/05/20 04:50:38;;;;;;;5.97;5.47;;;;;;;;;;5033673;28;20220;-61
2021/05/20 04:53:03;;;;;;;6.30;5.57;;;;;;;;;;5033974;28;20260;-61
2021/05/20 04:55:28;;;;;;;6.30;5.63;;;;;;;;;;5033523;28;20220;-61
2021/05/20 04:57:54;;;;;;;6.20;5.63;;;;;;;;;;5033758;28;20595;-61
2021/05/20 05:00:19;;;;;;;5.73;5.23;;;;;;;;;;5032554;28;20223;-61
2021/05/20 05:02:45;;;;;;;5.83;5.33;;;;;;;;;;5033770;28;20759;-60
2021/05/20 05:05:10;;;;;;;6.23;5.63;;;;;;;;;;5033958;28;20669;-60
2021/05/20 05:07:36;;;;;;;7.13;6.50;;;;;;;;;;5032065;28;20241;-60
2021/05/20 05:10:03;;;;;;;6.10;5.07;;;;;;;;;;5023672;28;20263;-61
2021/05/20 05:12:28;;;;;;;5.93;5.33;;;;;;;;;;5034911;28;20652;-60
2021/05/20 05:14:54;;;;;;;8.30;6.50;;;;;;;;;;5037915;28;20435;-61
2021/05/20 05:17:19;;;;;;;7.00;6.40;;;;;;;;;;5037287;28;20230;-60
2021/05/20 05:19:44;;;;;;;6.80;6.20;;;;;;;;;;5037636;28;20644;-61
2021/05/20 05:22:10;;;;;;;6.63;6.10;;;;;;;;;;5037421;28;20303;-61
2021/05/20 05:24:35;;;;;;;8.00;7.20;;;;;;;;;;5035996;28;20225;-60
2021/05/20 05:27:01;;;;;;;8.10;7.20;;;;;;;;;;5037017;28;20613;-62
2021/05/20 05:29:27;;;;;;;7.70;7.00;;;;;;;;;;5037058;28;20276;-61
2021/05/20 05:31:52;;;;;;;7.53;6.80;;;;;;;;;;5037299;28;20218;-60
2021/05/20 05:34:18;;;;;;;7.90;7.20;;;;;;;;;;5037460;28;20464;-61
2021/05/20 05:36:44;;;;;;;7.03;6.40;;;;;;;;;;5023370;28;20245;-61
2021/05/20 05:39:10;;;;;;;7.83;6.67;;;;;;;;;;5037137;28;20236;-61
2021/05/20 05:41:36;;;;;;;7.10;6.50;;;;;;;;;;5036817;28;20467;-61
2021/05/20 05:44:01;;;;;;;7.13;6.43;;;;;;;;;;5037216;28;20486;-60
2021/05/20 05:46:26;;;;;;;8.10;7.40;;;;;;;;;;5036545;28;20225;-60
2021/05/20 05:48:52;;;;;;;6.80;6.30;;;;;;;;;;5036695;28;20229;-60
2021/05/20 05:51:20;;;;;;;7.73;7.13;;;;;;;;;;5037186;28;20298;-61
2021/05/20 05:53:46;;;;;;;7.40;6.70;;;;;;;;;;5040465;28;20457;-61
2021/05/20 05:56:11;;;;;;;7.80;7.10;;;;;;;;;;5037165;28;20799;-61
2021/05/20 05:58:36;;;;;;;11.17;7.47;;;;;;;;;;5019157;28;20241;-60
2021/05/20 06:01:02;;;;;;;8.80;7.30;;;;;;;;;;5036967;28;20316;-61
2021/05/20 06:03:28;;;;;;;7.63;7.00;;;;;;;;;;5036453;28;20236;-61
2021/05/20 06:05:54;;;;;;;8.40;7.57;;;;;;;;;;5036471;28;20465;-60
2021/05/20 06:08:19;;;;;;;8.63;7.83;;;;;;;;;;5036789;28;20919;-61
2021/05/20 06:10:45;;;;;;;11.03;6.70;;;;;;;;;;5036238;28;20236;-60
2021/05/20 06:13:10;;;;;;;8.50;6.93;;;;;;;;;;5036393;28;20680;-60
2021/05/20 06:15:36;;;;;;;9.23;6.47;;;;;;;;;;5036212;28;20658;-61
2021/05/20 06:18:01;;;;;;;7.80;6.83;;;;;;;;;;5036547;28;20226;-61
2021/05/20 06:20:26;;;;;;;7.63;6.30;;;;;;;;;;5036297;28;20227;-61
2021/05/20 06:22:53;;;;;;;9.40;6.37;;;;;;;;;;5035515;28;20545;-61
2021/05/20 06:25:19;;;;;;;10.20;7.30;;;;;;;;;;5036345;28;20230;-61
2021/05/20 06:27:44;;;;;;;8.20;7.50;;;;;;;;;;5035744;28;20570;-61
2021/05/20 06:30:10;;;;;;;7.93;7.03;;;;;;;;;;5036393;28;20663;-60
2021/05/20 06:32:36;;;;;;;6.77;6.27;;;;;;;;;;5035739;28;20218;-59
2021/05/20 06:35:05;;;;;;;6.60;6.00;;;;;;;;;;5034506;28;20267;-60
2021/05/20 06:37:31;;;;;;;7.13;6.43;;;;;;;;;;5023286;28;20481;-62
2021/05/20 06:39:56;;;;;;;7.00;6.30;;;;;;;;;;5035807;28;20785;-61
2021/05/20 06:42:22;;;;;;;9.07;6.27;;;;;;;;;;5036167;28;20474;-61
2021/05/20 06:44:47;;;;;;;6.30;5.70;;;;;;;;;;5032828;28;20310;-61
2021/05/20 06:47:12;;;;;;;6.10;5.60;;;;;;;;;;5035948;28;20231;-60
2021/05/20 06:49:38;;;;;;;8.90;6.37;;;;;;;;;;5035554;28;20230;-60
2021/05/20 06:52:03;;;;;;;5.83;5.00;;;;;;;;;;5035965;28;20702;-61
2021/05/20 06:54:28;;;;;;;6.50;5.77;;;;;;;;;;5035124;28;20269;-61
2021/05/20 06:56:58;;;;;;;7.00;5.60;;;;;;;;;;5035507;28;20236;-60
2021/05/20 07:02:07;;;;;;;5.40;4.90;;;;;;;;;;5035428;28;20492;-61
2021/05/20 07:04:32;;;;;;;6.00;5.40;;;;;;;;;;5035533;28;20470;-62
2021/05/20 07:07:02;;;;;;;5.67;5.03;;;;;;;;;;5035388;28;20486;-60
2021/05/20 07:09:28;;;;;;;5.80;5.00;;;;;;;;;;5034151;28;20637;-60
2021/05/20 07:11:54;;;;;;;8.10;5.07;;;;;;;;;;5035584;28;20512;-60
2021/05/20 07:14:20;;;;;;;5.57;4.63;;;;;;;;;;5034861;28;20467;-60
2021/05/20 07:16:46;;;;;;;8.10;5.90;;;;;;;;;;5035404;28;20457;-61
2021/05/20 07:19:11;;;;;;;5.57;4.97;;;;;;;;;;5034822;28;20222;-60
2021/05/20 07:21:36;;;;;;;5.93;4.70;;;;;;;;;;5035374;28;20552;-61
2021/05/20 07:24:01;;;;;;;4.67;4.20;;;;;;;;;;5035050;28;20281;-61
2021/05/20 07:26:27;;;;;;;4.13;3.73;;;;;;;;;;5034788;28;20250;-61
2021/05/20 07:28:52;;;;;;;6.73;4.20;;;;;;;;;;5039022;28;20574;-61
2021/05/20 07:31:17;;;;;;;4.33;3.70;;;;;;;;;;5034858;28;20229;-61
2021/05/20 07:33:42;;;;;;;3.67;3.20;;;;;;;;;;5033986;28;20644;-61
2021/05/20 07:36:08;;;;;;;8.53;3.93;;;;;;;;;;5022971;28;20259;-62
2021/05/20 07:38:33;;;;;;;4.37;3.80;;;;;;;;;;5032114;28;20242;-61
2021/05/20 07:40:58;;;;;;;8.00;3.37;;;;;;;;;;5034942;28;20273;-62
2021/05/20 07:43:24;;;;;;;4.77;4.00;;;;;;;;;;5032165;28;20210;-63
2021/05/20 07:45:51;;;;;;;3.33;3.03;;;;;;;;;;5034917;28;20246;-63
2021/05/20 07:48:16;;;;;;;5.97;3.10;;;;;;;;;;5034262;28;20231;-62
2021/05/20 07:50:43;;;;;;;5.00;2.77;;;;;;;;;;5033909;28;20483;-62
2021/05/20 07:53:08;;;;;;;4.90;4.07;;;;;;;;;;5034707;28;20303;-62
2021/05/20 07:55:33;;;;;;;4.00;3.57;;;;;;;;;;5024263;28;20467;-62
2021/05/20 07:57:59;;;;;;;7.17;4.93;;;;;;;;;;5031965;28;20232;-62
2021/05/20 08:00:25;;;;;;;6.90;6.23;;;;;;;;;;5034121;28;20228;-61
2021/05/20 08:05:34;;;;;;;4.33;3.93;;;;;;;;;;5034165;28;20275;-62
2021/05/20 08:08:24;;;;;;;4.27;3.50;;;;;;;;;;5033555;28;20241;-62
2021/05/20 08:10:57;;;;;;;5.47;4.97;;;;;;;;;;5034185;28;20477;-62
2021/05/20 08:13:23;;;;;;;7.20;4.60;;;;;;;;;;5034242;28;20459;-62
2021/05/20 08:15:48;;;;;;;4.13;3.70;;;;;;;;;;5034558;28;20543;-63
2021/05/20 08:18:14;;;;;;;3.00;2.40;;;;;;;;;;5034167;28;20328;-62
2021/05/20 08:20:39;;;;;;;3.60;2.87;;;;;;;;;;5034228;28;20229;-62
2021/05/20 08:23:04;;;;;;;4.33;3.93;;;;;;;;;;5034195;28;20496;-62
2021/05/20 08:25:30;;;;;;;4.03;3.00;;;;;;;;;;5034237;28;20226;-61
2021/05/20 08:27:55;;;;;;;4.53;3.07;;;;;;;;;;5034309;28;20248;-62
2021/05/20 08:30:21;;;;;;;3.87;2.30;;;;;;;;;;5033644;28;20217;-61
2021/05/20 08:32:47;;;;;;;3.57;2.70;;;;;;;;;;5033140;28;20240;-61
2021/05/20 08:35:13;;;;;;;3.87;2.80;;;;;;;;;;5029486;28;20551;-62
2021/05/20 08:37:39;;;;;;;2.77;2.53;;;;;;;;;;5024285;28;20239;-62
2021/05/20 08:40:06;;;;;;;3.83;2.23;;;;;;;;;;5033437;28;20827;-61
2021/05/20 08:42:31;;;;;;;3.60;2.60;;;;;;;;;;5034270;28;20460;-61
2021/05/20 08:44:57;;;;;;;2.90;2.07;;;;;;;;;;5033660;28;20524;-62
2021/05/20 08:47:22;;;;;;;2.67;1.80;;;;;;;;;;5033202;28;20321;-62
2021/05/20 08:49:48;;;;;;;2.40;2.20;;;;;;;;;;5033967;28;20225;-63
2021/05/20 08:52:13;;;;;;;4.50;2.70;;;;;;;;;;5033539;28;20258;-62
2021/05/20 08:54:40;;;;;;;2.30;2.10;;;;;;;;;;5033837;28;20225;-63
2021/05/20 08:57:05;;;;;;;3.53;2.47;;;;;;;;;;5033515;28;20240;-63
2021/05/20 08:59:30;;;;;;;2.83;1.70;;;;;;;;;;5033925;28;20770;-62
2021/05/20 09:01:58;;;;;;;2.30;1.97;;;;;;;;;;5033536;28;20241;-62
2021/05/20 09:04:25;;;;;;;4.30;3.70;;;;;;;;;;5033320;28;20226;-63
2021/05/20 09:06:53;;;;;;;3.60;2.20;;;;;;;;;;5033833;28;20487;-63
2021/05/20 09:09:25;;;;;;;2.80;2.13;;;;;;;;;;5033058;28;20550;-62
2021/05/20 09:11:58;;;;;;;3.00;1.63;;;;;;;;;;5033202;28;20471;-63
2021/05/20 09:14:41;;;;;;;2.60;1.90;;;;;;;;;;5030925;28;20544;-62
2021/05/20 09:17:17;;;;;;;2.60;2.10;;;;;;;;;;5033288;28;20528;-62
2021/05/20 09:19:45;;;;;;;2.77;2.13;;;;;;;;;;5033326;28;20534;-62
2021/05/20 09:22:12;;;;;;;3.13;2.83;;;;;;;;;;5032050;28;20514;-62
2021/05/20 09:24:54;;;;;;;2.60;2.40;;;;;;;;;;5033329;28;20476;-62
2021/05/20 09:27:37;;;;;;;2.40;2.10;;;;;;;;;;5032793;28;20544;-62
2021/05/20 09:30:12;;;;;;;3.03;2.30;;;;;;;;;;5033689;28;20459;-62
2021/05/20 09:32:40;;;;;;;2.23;2.00;;;;;;;;;;5033194;28;20444;-62
2021/05/20 09:35:05;;;;;;;3.20;2.03;;;;;;;;;;5030156;28;20787;-63
2021/05/20 09:37:33;;;;;;;3.03;2.33;;;;;;;;;;5021760;28;20471;-61
2021/05/20 09:40:04;;;;;;;2.47;2.27;;;;;;;;;;5033229;28;20457;-63
2021/05/20 09:42:30;;;;;;;2.20;1.83;;;;;;;;;;5032943;28;20794;-61
2021/05/20 09:45:05;;;;;;;3.03;2.03;;;;;;;;;;5024462;28;20457;-62
2021/05/20 09:47:34;;;;;;;2.90;2.43;;;;;;;;;;5025749;28;20473;-62
2021/05/20 09:50:05;;;;;;;3.53;2.37;;;;;;;;;;5030730;28;20517;-62
2021/05/20 09:52:31;;;;;;;3.00;2.63;;;;;;;;;;5032804;28;20476;-62
2021/05/20 09:54:56;;;;;;;4.30;2.70;;;;;;;;;;5032943;28;20468;-62
2021/05/20 09:57:33;;;;;;;2.60;2.40;;;;;;;;;;5032987;28;20465;-62
2021/05/20 10:00:00;;;;;;;2.67;2.10;;;;;;;;;;5036691;28;20240;-63
2021/05/20 10:02:26;;;;;;;2.57;2.30;;;;;;;;;;5036355;28;20894;-62
2021/05/20 10:04:53;;;;;;;2.23;2.03;;;;;;;;;;5036541;28;20460;-62
2021/05/20 10:07:31;;;;;;;3.03;2.30;;;;;;;;;;5036367;28;20476;-62
2021/05/20 10:09:57;;;;;;;2.13;2.00;;;;;;;;;;5024279;28;20540;-62
2021/05/20 10:12:23;;;;;;;4.93;2.67;;;;;;;;;;5036136;28;20464;-62
2021/05/20 10:14:49;;;;;;;3.30;2.23;;;;;;;;;;5035752;28;20460;-62
2021/05/20 10:17:18;;;;;;;2.63;2.20;;;;;;;;;;5036366;28;20510;-63
2021/05/20 10:19:45;;;;;;;3.53;2.10;;;;;;;;;;5034847;28;21372;-63
2021/05/20 10:22:12;;;;;;;5.43;2.43;;;;;;;;;;5035662;28;20468;-62
2021/05/20 10:24:37;;;;;;;3.20;2.00;;;;;;;;;;5035915;28;20465;-62
2021/05/20 10:27:03;;;;;;;2.40;2.20;;;;;;;;;;5034312;28;20464;-62
2021/05/20 10:29:28;;;;;;;4.27;2.67;;;;;;;;;;5033382;28;20227;-63
2021/05/20 10:31:53;;;;;;;4.10;2.10;;;;;;;;;;5035974;28;20261;-62
2021/05/20 10:34:19;;;;;;;2.47;2.27;;;;;;;;;;5035200;28;20244;-63
2021/05/20 10:37:06;;;;;;;2.27;1.93;;;;;;;;;;5021972;28;20240;-63
2021/05/20 10:39:31;;;;;;;2.07;1.80;;;;;;;;;;5035841;28;20226;-63
2021/05/20 10:41:57;;;;;;;4.30;2.20;;;;;;;;;;5034954;28;20519;-61
2021/05/20 10:44:23;;;;;;;2.50;2.20;;;;;;;;;;5032077;28;20214;-62
2021/05/20 10:46:57;;;;;;;2.67;2.10;;;;;;;;;;5035730;28;20734;-62
2021/05/20 10:49:51;;;;;;;2.27;2.07;;;;;;;;;;5035514;28;20460;-62
2021/05/20 10:52:35;;;;;;;2.57;2.37;;;;;;;;;;5025720;28;20449;-61
2021/05/20 10:55:03;;;;;;;3.13;2.50;;;;;;;;;;5035709;28;20491;-62
2021/05/20 10:58:02;;;;;;;2.70;2.00;;;;;;;;;;5035250;28;20745;-61
2021/05/20 11:00:30;;;;;;;2.90;2.60;;;;;;;;;;5015549;28;20461;-62
2021/05/20 11:02:55;;;;;;;2.40;2.20;;;;;;;;;;5046317;28;20463;-62
2021/05/20 11:05:39;;;;;;;2.93;2.63;;;;;;;;;;5045350;28;20455;-63
2021/05/20 11:08:30;;;;;;;2.57;2.33;;;;;;;;;;5041318;28;20323;-62
2021/05/20 11:10:55;;;;;;;3.07;2.80;;;;;;;;;;5041958;28;20460;-62
2021/05/20 11:13:41;;;;;;;3.13;2.87;;;;;;;;;;5046155;28;20461;-62
2021/05/20 11:16:16;;;;;;;4.43;2.40;;;;;;;;;;5048548;28;20241;-62
2021/05/20 11:18:42;;;;;;;2.57;2.23;;;;;;;;;;5048804;28;20473;-63
2021/05/20 11:21:08;;;;;;;2.90;2.37;;;;;;;;;;5041427;28;20470;-63
2021/05/20 11:23:35;;;;;;;3.60;2.63;;;;;;;;;;5041653;28;20469;-62
2021/05/20 11:26:12;;;;;;;2.77;2.53;;;;;;;;;;5037469;28;20217;-61
2021/05/20 11:28:42;;;;;;;3.57;2.63;;;;;;;;;;5040985;28;21399;-61
2021/05/20 11:31:08;;;;;;;2.87;2.67;;;;;;;;;;5046300;28;20776;-61
2021/05/20 11:33:43;;;;;;;3.43;3.00;;;;;;;;;;5042201;28;20619;-62
2021/05/20 11:36:12;;;;;;;5.40;2.07;;;;;;;;;;5023951;28;20833;-61
2021/05/20 11:38:37;;;;;;;2.40;2.20;;;;;;;;;;5045450;28;20465;-61
2021/05/20 11:41:16;;;;;;;2.10;1.80;;;;;;;;;;5045797;28;20474;-62
2021/05/20 11:43:42;;;;;;;2.93;2.13;;;;;;;;;;5040714;28;20300;-62
2021/05/20 11:46:17;;;;;;;3.13;2.30;;;;;;;;;;5038828;28;21098;-61
2021/05/20 11:48:55;;;;;;;2.07;1.87;;;;;;;;;;5028992;28;20269;-62
2021/05/20 11:51:41;;;;;;;1.50;1.40;;;;;;;;;;5040718;28;20803;-63
2021/05/20 11:54:11;;;;;;;1.53;1.43;;;;;;;;;;5039384;28;20461;-62
2021/05/20 11:56:38;;;;;;;5.10;1.67;;;;;;;;;;5039815;28;20456;-62
2021/05/20 11:59:03;;;;;;;1.70;1.37;;;;;;;;;;5037220;28;20460;-61
2021/05/20 12:01:29;;;;;;;2.97;1.70;;;;;;;;;;5033206;28;20791;-61
2021/05/20 12:04:04;;;;;;;2.07;1.40;;;;;;;;;;5032334;28;20224;-61
2021/05/20 12:06:29;;;;;;;1.90;1.63;;;;;;;;;;5032201;28;20614;-62
2021/05/20 12:09:09;;;;;;;1.70;1.60;;;;;;;;;;5034509;28;20508;-62
2021/05/20 12:11:34;;;;;;;2.80;1.87;;;;;;;;;;5032910;28;20546;-62
2021/05/20 12:13:59;;;;;;;2.00;1.77;;;;;;;;;;5047480;28;20468;-62
2021/05/20 12:16:33;;;;;;;1.43;1.30;;;;;;;;;;5042083;28;20217;-61
2021/05/20 12:18:59;;;;;;;1.90;1.50;;;;;;;;;;5040696;28;20232;-62
2021/05/20 12:21:24;;;;;;;3.70;1.67;;;;;;;;;;5043956;28;20797;-62
2021/05/20 12:23:57;;;;;;;3.53;1.50;;;;;;;;;;5036975;28;20229;-63
2021/05/20 12:26:25;;;;;;;2.57;1.27;;;;;;;;;;5043337;28;20316;-63
2021/05/20 12:28:50;;;;;;;2.10;1.43;;;;;;;;;;5047468;28;20550;-62
2021/05/20 12:31:17;;;;;;;1.43;1.30;;;;;;;;;;5044110;28;20513;-62
2021/05/20 12:33:42;;;;;;;1.93;1.20;;;;;;;;;;5039035;28;20221;-63
2021/05/20 12:36:07;;;;;;;2.30;1.30;;;;;;;;;;5032699;28;20493;-63
2021/05/20 12:38:33;;;;;;;1.70;1.50;;;;;;;;;;5044282;28;20676;-62
2021/05/20 12:41:01;;;;;;;1.83;1.70;;;;;;;;;;5044280;28;20282;-62
2021/05/20 12:43:28;;;;;;;3.73;2.07;;;;;;;;;;5038768;28;20216;-61
2021/05/20 12:45:55;;;;;;;3.47;1.50;;;;;;;;;;5042191;28;20543;-61
2021/05/20 12:48:33;;;;;;;2.07;1.50;;;;;;;;;;5040030;28;20561;-62
2021/05/20 12:51:27;;;;;;;2.50;1.73;;;;;;;;;;5041164;28;20461;-61
2021/05/20 12:53:57;;;;;;;1.93;1.83;;;;;;;;;;5032045;28;20471;-61
2021/05/20 12:56:22;;;;;;;1.77;1.53;;;;;;;;;;5039924;28;20462;-62
2021/05/20 12:59:03;;;;;;;2.83;2.27;;;;;;;;;;5043540;28;20952;-61
2021/05/20 13:01:37;;;;;;;2.67;2.10;;;;;;;;;;5043130;28;20554;-61
2021/05/20 13:04:11;;;;;;;2.17;1.83;;;;;;;;;;5040340;28;20470;-61
2021/05/20 13:06:37;;;;;;;2.60;1.97;;;;;;;;;;5028757;28;20596;-61
2021/05/20 13:09:07;;;;;;;2.07;1.67;;;;;;;;;;5039594;28;20549;-62
2021/05/20 13:11:35;;;;;;;1.90;1.70;;;;;;;;;;5045327;28;20240;-61
2021/05/20 13:17:16;;;;;;;2.20;2.00;;;;;;;;;;5044371;28;20507;-62
2021/05/20 13:20:07;;;;;;;2.23;1.63;;;;;;;;;;5030505;28;20463;-61
2021/05/20 13:22:32;;;;;;;2.40;2.00;;;;;;;;;;5052218;28;20807;-62
2021/05/20 13:25:08;;;;;;;1.80;1.67;;;;;;;;;;5053461;28;20488;-62
2021/05/20 13:27:34;;;;;;;1.90;1.70;;;;;;;;;;5052638;28;20479;-61
2021/05/20 13:30:06;;;;;;;1.70;1.47;;;;;;;;;;5053371;28;20530;-61
2021/05/20 13:34:58;;;;;;;1.90;1.50;;;;;;;;;;5055865;28;20899;-62
2021/05/20 13:37:23;;;;;;;1.60;1.40;;;;;;;;;;5043112;28;20471;-62
2021/05/20 13:39:48;;;;;;;1.40;1.20;;;;;;;;;;5050250;28;20243;-62
2021/05/20 13:42:14;;;;;;;1.40;1.17;;;;;;;;;;5057091;28;20554;-62
2021/05/20 13:44:51;;;;;;;2.13;1.30;;;;;;;;;;5056205;28;20263;-61
2021/05/20 13:47:17;;;;;;;1.47;1.37;;;;;;;;;;5055367;28;20224;-61
2021/05/20 13:49:45;;;;;;;1.63;1.20;;;;;;;;;;5052441;28;20463;-61
2021/05/20 13:52:21;;;;;;;1.70;1.30;;;;;;;;;;5057143;28;20270;-61
2021/05/20 13:54:49;;;;;;;3.17;1.43;;;;;;;;;;5051933;28;20475;-62
2021/05/20 13:57:14;;;;;;;2.23;1.20;;;;;;;;;;5047556;28;20463;-62
2021/05/20 13:59:43;;;;;;;1.60;1.50;;;;;;;;;;5053934;28;20470;-62
2021/05/20 14:02:11;;;;;;;1.50;1.10;;;;;;;;;;5056949;28;20232;-61
2021/05/20 14:04:38;;;;;;;1.97;1.60;;;;;;;;;;5056405;28;20517;-61
2021/05/20 14:07:08;;;;;;;4.77;1.50;;;;;;;;;;5056471;28;20491;-61
2021/05/20 14:09:34;;;;;;;1.20;1.00;;;;;;;;;;5055239;28;20464;-62
2021/05/20 14:12:02;;;;;;;1.60;1.30;;;;;;;;;;5056674;28;20522;-63
2021/05/20 14:14:29;;;;;;;2.60;1.10;;;;;;;;;;5056479;28;20545;-62
2021/05/20 14:16:54;;;;;;;1.30;1.20;;;;;;;;;;5055153;28;20467;-61
2021/05/20 14:19:20;;;;;;;1.40;1.07;;;;;;;;;;5052672;28;20555;-61
2021/05/20 14:21:45;;;;;;;3.40;1.40;;;;;;;;;;5053499;28;20300;-61
2021/05/20 14:24:10;;;;;;;1.20;1.10;;;;;;;;;;5046179;28;20282;-62
2021/05/20 14:26:36;;;;;;;3.67;1.23;;;;;;;;;;5054731;28;20312;-62
2021/05/20 14:29:01;;;;;;;1.30;1.10;;;;;;;;;;5056222;28;20296;-61
2021/05/20 14:31:27;;;;;;;1.37;1.27;;;;;;;;;;5056085;28;20217;-61
2021/05/20 14:33:52;;;;;;;1.83;1.60;;;;;;;;;;5055687;28;20617;-61
2021/05/20 14:36:17;;;;;;;2.17;1.80;;;;;;;;;;5043899;28;20237;-62
2021/05/20 14:38:42;;;;;;;1.90;1.70;;;;;;;;;;5054141;28;20713;-61
2021/05/20 14:41:08;;;;;;;2.03;1.33;;;;;;;;;;5055936;28;20252;-61
2021/05/20 14:43:33;;;;;;;2.57;1.50;;;;;;;;;;5053382;28;20300;-61
2021/05/20 14:45:58;;;;;;;2.00;1.33;;;;;;;;;;5054897;28;20213;-62
2021/05/20 14:48:24;;;;;;;1.60;1.40;;;;;;;;;;5047563;28;20283;-62
2021/05/20 14:53:34;;;;;;;1.33;1.23;;;;;;;;;;5042456;28;20235;-63
2021/05/20 15:06:42;;;;;;;1.70;1.17;;;;;;;;;;5043157;28;20494;-63
2021/05/20 15:09:12;;;;;;;1.30;1.20;;;;;;;;;;5055450;28;20497;-62